createdAt,value
2017-02-09T04:00:39.665Z,72.69
2017-02-09T04:01:05.264Z,72.79
2017-02-09T04:01:30.804Z,72.79
2017-02-09T04:01:56.477Z,72.69
2017-02-09T04:02:22.005Z,72.79
2017-02-09T04:02:47.565Z,72.79
2017-02-09T04:03:13.114Z,72.69
2017-02-09T04:03:38.668Z,72.6
2017-02-09T04:04:04.236Z,72.79
2017-02-09T04:04:29.787Z,72.79
2017-02-09T04:04:55.383Z,72.79
2017-02-09T04:05:20.955Z,72.69
2017-02-09T04:05:46.504Z,72.6
2017-02-09T04:06:12.229Z,72.69
2017-02-09T04:06:37.867Z,72.79
2017-02-09T04:07:03.486Z,72.79
2017-02-09T04:07:29.059Z,72.69
2017-02-09T04:07:54.704Z,72.79
2017-02-09T04:08:20.398Z,72.79
2017-02-09T04:08:45.952Z,72.79
2017-02-09T04:09:11.516Z,72.69
2017-02-09T04:09:37.083Z,72.69
2017-02-09T04:10:02.688Z,72.79
2017-02-09T04:10:28.246Z,72.98
2017-02-09T04:10:53.832Z,72.79
2017-02-09T04:11:19.427Z,72.79
2017-02-09T04:11:44.963Z,72.69
2017-02-09T04:12:10.541Z,72.6
2017-02-09T04:12:36.135Z,72.6
2017-02-09T04:13:01.713Z,72.69
2017-02-09T04:13:27.277Z,72.6
2017-02-09T04:13:52.973Z,72.69
2017-02-09T04:14:18.536Z,72.6
2017-02-09T04:14:44.086Z,72.69
2017-02-09T04:15:09.843Z,72.88
2017-02-09T04:15:35.416Z,72.6
2017-02-09T04:16:00.982Z,72.79
2017-02-09T04:16:26.548Z,73.17
2017-02-09T04:16:52.097Z,72.69
2017-02-09T04:17:17.669Z,72.69
2017-02-09T04:17:43.249Z,72.69
2017-02-09T04:18:08.830Z,73.17
2017-02-09T04:18:34.387Z,72.79
2017-02-09T04:18:59.947Z,72.6
2017-02-09T04:19:25.512Z,72.88
2017-02-09T04:19:51.076Z,73.17
2017-02-09T04:20:16.764Z,72.69
2017-02-09T04:20:42.336Z,73.17
2017-02-09T04:21:07.915Z,73.27
2017-02-09T04:21:33.470Z,73.36
2017-02-09T04:21:59.041Z,73.27
2017-02-09T04:22:24.608Z,73.27
2017-02-09T04:22:50.155Z,73.27
2017-02-09T04:23:15.737Z,73.27
2017-02-09T04:23:41.303Z,73.27
2017-02-09T04:24:06.880Z,72.98
2017-02-09T04:24:32.443Z,72.98
2017-02-09T04:24:58.009Z,73.08
2017-02-09T04:25:23.565Z,72.98
2017-02-09T04:25:49.288Z,73.17
2017-02-09T04:26:14.855Z,73.08
2017-02-09T04:26:40.426Z,72.98
2017-02-09T04:27:06.076Z,73.17
2017-02-09T04:27:31.627Z,72.98
2017-02-09T04:27:57.288Z,73.17
2017-02-09T04:28:22.987Z,72.98
2017-02-09T04:28:48.547Z,73.08
2017-02-09T04:29:14.136Z,73.17
2017-02-09T04:29:39.833Z,72.79
2017-02-09T04:30:05.416Z,73.27
2017-02-09T04:30:30.973Z,72.88
2017-02-09T04:30:56.570Z,73.17
2017-02-09T04:31:22.197Z,72.98
2017-02-09T04:31:47.857Z,73.27
2017-02-09T04:32:13.418Z,72.98
2017-02-09T04:32:38.966Z,73.08
2017-02-09T04:33:04.512Z,73.27
2017-02-09T04:33:30.111Z,73.08
2017-02-09T04:33:55.786Z,73.17
2017-02-09T04:34:21.351Z,73.17
2017-02-09T04:34:47.005Z,73.08
2017-02-09T04:35:12.611Z,73.08
2017-02-09T04:35:38.198Z,73.27
2017-02-09T04:36:03.779Z,73.27
2017-02-09T04:36:29.415Z,73.27
2017-02-09T04:36:55.070Z,72.98
2017-02-09T04:37:20.596Z,73.27
2017-02-09T04:37:46.170Z,73.17
2017-02-09T04:38:11.726Z,73.17
2017-02-09T04:38:37.284Z,73.17
2017-02-09T04:39:02.842Z,72.88
2017-02-09T04:39:28.428Z,72.98
2017-02-09T04:39:53.973Z,73.27
2017-02-09T04:40:19.562Z,73.27
2017-02-09T04:40:45.130Z,72.98
2017-02-09T04:41:10.690Z,72.98
2017-02-09T04:41:36.293Z,73.08
2017-02-09T04:42:02.032Z,73.08
2017-02-09T04:42:27.588Z,72.98
2017-02-09T04:43:41.429Z,73.08
2017-02-09T04:44:07.161Z,73.17
2017-02-09T04:44:32.724Z,73.08
2017-02-09T04:44:58.312Z,73.17
2017-02-09T04:45:23.866Z,72.88
2017-02-09T04:45:49.428Z,73.08
2017-02-09T04:46:15.014Z,73.08
2017-02-09T04:46:40.632Z,73.17
2017-02-09T04:47:06.185Z,73.08
2017-02-09T04:47:31.744Z,73.17
2017-02-09T04:47:57.408Z,73.17
2017-02-09T04:48:23.026Z,73.27
2017-02-09T04:48:48.558Z,73.17
2017-02-09T04:49:14.266Z,72.98
2017-02-09T04:49:39.818Z,72.98
2017-02-09T04:50:05.371Z,73.27
2017-02-09T04:50:30.921Z,73.27
2017-02-09T04:50:56.503Z,73.27
2017-02-09T04:51:22.139Z,73.17
2017-02-09T04:51:47.720Z,73.17
2017-02-09T04:52:13.289Z,73.36
2017-02-09T04:52:38.839Z,73.27
2017-02-09T04:53:04.438Z,73.27
2017-02-09T04:53:29.999Z,73.36
2017-02-09T04:53:55.617Z,72.98
2017-02-09T04:54:21.185Z,73.08
2017-02-09T04:54:46.736Z,72.98
2017-02-09T04:55:12.293Z,73.27
2017-02-09T04:55:37.831Z,72.98
2017-02-09T04:56:03.447Z,73.46
2017-02-09T04:56:29.015Z,73.36
2017-02-09T04:56:54.585Z,73.36
2017-02-09T04:57:20.238Z,72.98
2017-02-09T04:57:45.815Z,73.27
2017-02-09T04:58:11.415Z,73.27
2017-02-09T04:58:36.995Z,73.27
2017-02-09T04:59:02.639Z,73.27
2017-02-09T04:59:28.201Z,73.17
2017-02-09T04:59:53.805Z,73.27
2017-02-09T05:00:19.372Z,73.27
2017-02-09T05:00:44.935Z,73.46
2017-02-09T05:01:10.591Z,73.46
2017-02-09T05:01:36.161Z,72.98
2017-02-09T05:02:01.718Z,73.46
2017-02-09T05:02:27.374Z,72.98
2017-02-09T05:02:52.942Z,73.36
2017-02-09T05:03:18.545Z,73.46
2017-02-09T05:03:44.122Z,73.36
2017-02-09T05:04:09.801Z,73.46
2017-02-09T05:04:35.376Z,73.27
2017-02-09T05:05:00.925Z,73.46
2017-02-09T05:05:26.477Z,73.36
2017-02-09T05:05:52.022Z,73.36
2017-02-09T05:06:17.629Z,72.98
2017-02-09T05:06:43.226Z,73.46
2017-02-09T05:07:08.791Z,73.27
2017-02-09T05:07:34.374Z,73.27
2017-02-09T05:07:59.937Z,72.98
2017-02-09T05:08:25.493Z,73.55
2017-02-09T05:08:51.066Z,73.46
2017-02-09T05:09:16.684Z,73.36
2017-02-09T05:09:42.265Z,73.36
2017-02-09T05:10:07.824Z,73.27
2017-02-09T05:10:33.604Z,73.17
2017-02-09T05:10:59.194Z,73.17
2017-02-09T05:11:24.801Z,72.98
2017-02-09T05:11:50.436Z,73.27
2017-02-09T05:12:16.029Z,73.36
2017-02-09T05:12:41.589Z,72.98
2017-02-09T05:13:07.134Z,73.36
2017-02-09T05:13:32.717Z,73.46
2017-02-09T05:13:58.271Z,73.46
2017-02-09T05:14:23.818Z,73.46
2017-02-09T05:14:49.360Z,73.08
2017-02-09T05:15:14.913Z,73.46
2017-02-09T05:15:41.191Z,73.27
2017-02-09T05:16:06.850Z,73.27
2017-02-09T05:16:32.433Z,73.27
2017-02-09T05:16:58.011Z,73.27
2017-02-09T05:17:23.613Z,73.27
2017-02-09T05:17:49.261Z,73.36
2017-02-09T05:18:14.894Z,73.27
2017-02-09T05:18:40.455Z,73.46
2017-02-09T05:19:06.063Z,73.36
2017-02-09T05:19:31.660Z,72.98
2017-02-09T05:19:57.204Z,73.36
2017-02-09T05:20:22.785Z,73.46
2017-02-09T05:20:48.367Z,73.46
2017-02-09T05:21:13.932Z,73.27
2017-02-09T05:21:39.543Z,73.36
2017-02-09T05:22:05.130Z,73.27
2017-02-09T05:22:30.784Z,73.27
2017-02-09T05:22:56.351Z,73.55
2017-02-09T05:23:21.920Z,73.36
2017-02-09T05:23:47.605Z,73.27
2017-02-09T05:24:13.194Z,73.27
2017-02-09T05:24:38.791Z,73.36
2017-02-09T05:25:04.345Z,73.46
2017-02-09T05:25:29.904Z,73.46
2017-02-09T05:25:55.457Z,73.27
2017-02-09T05:26:20.996Z,73.27
2017-02-09T05:26:46.538Z,73.27
2017-02-09T05:27:12.077Z,73.36
2017-02-09T05:27:37.640Z,73.36
2017-02-09T05:28:03.199Z,73.36
2017-02-09T05:28:28.761Z,73.36
2017-02-09T05:28:54.465Z,73.46
2017-02-09T05:29:20.043Z,73.46
2017-02-09T05:29:45.621Z,73.46
2017-02-09T05:30:11.185Z,73.46
2017-02-09T05:30:36.871Z,73.36
2017-02-09T05:31:02.453Z,73.36
2017-02-09T05:31:27.999Z,73.27
2017-02-09T05:31:53.605Z,73.46
2017-02-09T05:32:19.282Z,73.46
2017-02-09T05:32:44.855Z,73.46
2017-02-09T05:33:10.491Z,73.27
2017-02-09T05:33:36.122Z,73.46
2017-02-09T05:34:01.696Z,73.36
2017-02-09T05:34:27.311Z,73.27
2017-02-09T05:34:52.881Z,73.46
2017-02-09T05:35:18.448Z,73.46
2017-02-09T05:35:44.113Z,73.46
2017-02-09T05:36:09.669Z,73.36
2017-02-09T05:36:35.223Z,73.08
2017-02-09T05:37:01.701Z,73.27
2017-02-09T05:37:27.259Z,73.46
2017-02-09T05:38:25.650Z,73.36
2017-02-09T05:38:51.312Z,73.46
2017-02-09T05:39:16.871Z,73.27
2017-02-09T05:39:42.434Z,73.36
2017-02-09T05:40:08.009Z,73.46
2017-02-09T05:40:33.572Z,73.46
2017-02-09T05:40:59.153Z,73.46
2017-02-09T05:41:24.735Z,73.36
2017-02-09T05:41:50.300Z,73.36
2017-02-09T05:42:15.886Z,73.65
2017-02-09T05:42:41.453Z,73.46
2017-02-09T05:43:07.106Z,73.36
2017-02-09T05:43:32.692Z,73.46
2017-02-09T05:43:58.242Z,73.46
2017-02-09T05:44:23.793Z,73.36
2017-02-09T05:44:49.351Z,73.46
2017-02-09T05:45:14.913Z,73.36
2017-02-09T05:45:40.490Z,73.46
2017-02-09T05:46:06.102Z,73.46
2017-02-09T05:46:31.652Z,73.46
2017-02-09T05:46:57.322Z,73.36
2017-02-09T05:47:22.946Z,73.46
2017-02-09T05:47:48.504Z,73.17
2017-02-09T05:48:14.112Z,73.27
2017-02-09T05:48:39.767Z,73.46
2017-02-09T05:49:05.346Z,73.46
2017-02-09T05:49:30.912Z,73.84
2017-02-09T05:49:56.568Z,73.46
2017-02-09T05:50:22.147Z,73.46
2017-02-09T05:50:47.696Z,73.17
2017-02-09T05:51:13.274Z,73.36
2017-02-09T05:51:38.849Z,73.55
2017-02-09T05:52:04.418Z,73.27
2017-02-09T05:52:29.983Z,73.27
2017-02-09T05:52:55.701Z,73.46
2017-02-09T05:53:21.277Z,73.36
2017-02-09T05:53:46.873Z,73.27
2017-02-09T05:54:12.536Z,73.36
2017-02-09T05:54:38.124Z,73.65
2017-02-09T05:55:03.700Z,73.46
2017-02-09T05:55:29.250Z,73.46
2017-02-09T05:55:54.819Z,73.46
2017-02-09T05:56:20.371Z,73.84
2017-02-09T05:56:45.911Z,73.84
2017-02-09T05:57:11.462Z,73.84
2017-02-09T05:57:37.030Z,73.46
2017-02-09T05:58:02.702Z,73.84
2017-02-09T05:58:28.263Z,73.36
2017-02-09T05:58:53.815Z,73.27
2017-02-09T05:59:19.371Z,73.36
2017-02-09T05:59:44.932Z,73.55
2017-02-09T06:00:10.541Z,73.46
2017-02-09T06:00:36.103Z,73.46
2017-02-09T06:01:01.662Z,73.65
2017-02-09T06:01:27.312Z,73.84
2017-02-09T06:01:52.878Z,73.46
2017-02-09T06:02:18.433Z,73.84
2017-02-09T06:02:44.001Z,73.84
2017-02-09T06:03:09.587Z,73.84
2017-02-09T06:03:35.136Z,73.55
2017-02-09T06:04:00.714Z,73.65
2017-02-09T06:04:26.292Z,73.46
2017-02-09T06:04:51.855Z,73.84
2017-02-09T06:05:17.415Z,73.84
2017-02-09T06:05:42.978Z,73.75
2017-02-09T06:06:08.527Z,73.84
2017-02-09T06:06:34.083Z,73.55
2017-02-09T06:06:59.652Z,73.46
2017-02-09T06:07:25.227Z,73.36
2017-02-09T06:07:50.796Z,73.17
2017-02-09T06:08:16.355Z,73.46
2017-02-09T06:08:41.912Z,73.84
2017-02-09T06:09:07.482Z,73.46
2017-02-09T06:09:33.041Z,73.46
2017-02-09T06:09:58.605Z,73.46
2017-02-09T06:10:24.170Z,73.46
2017-02-09T06:10:49.740Z,73.46
2017-02-09T06:11:15.394Z,73.65
2017-02-09T06:11:40.974Z,73.46
2017-02-09T06:12:06.533Z,72.98
2017-02-09T06:12:32.094Z,73.46
2017-02-09T06:12:57.659Z,73.46
2017-02-09T06:13:23.220Z,73.84
2017-02-09T06:13:48.781Z,73.17
2017-02-09T06:14:14.338Z,73.84
2017-02-09T06:14:39.890Z,73.17
2017-02-09T06:15:05.434Z,73.17
2017-02-09T06:15:31.089Z,73.27
2017-02-09T06:15:56.648Z,73.65
2017-02-09T06:16:22.191Z,73.17
2017-02-09T06:16:47.738Z,73.65
2017-02-09T06:17:13.383Z,73.84
2017-02-09T06:17:38.950Z,73.84
2017-02-09T06:18:04.517Z,73.94
2017-02-09T06:18:30.070Z,73.65
2017-02-09T06:18:56.587Z,73.65
2017-02-09T06:19:22.147Z,73.65
2017-02-09T06:19:47.680Z,73.84
2017-02-09T06:20:13.229Z,73.65
2017-02-09T06:20:38.847Z,73.46
2017-02-09T06:21:04.439Z,73.46
2017-02-09T06:21:30.015Z,73.94
2017-02-09T06:21:55.576Z,73.65
2017-02-09T06:22:21.234Z,73.55
2017-02-09T06:22:46.821Z,73.65
2017-02-09T06:23:12.439Z,73.84
2017-02-09T06:23:38.032Z,73.55
2017-02-09T06:24:03.588Z,73.08
2017-02-09T06:24:29.155Z,73.84
2017-02-09T06:24:54.732Z,72.98
2017-02-09T06:25:20.291Z,73.84
2017-02-09T06:25:45.855Z,73.84
2017-02-09T06:26:11.412Z,73.55
2017-02-09T06:26:37.016Z,73.84
2017-02-09T06:27:02.575Z,73.46
2017-02-09T06:27:28.143Z,73.65
2017-02-09T06:27:53.698Z,73.65
2017-02-09T06:28:19.247Z,73.46
2017-02-09T06:28:44.778Z,73.65
2017-02-09T06:29:10.315Z,73.65
2017-02-09T06:29:35.872Z,73.84
2017-02-09T06:30:01.435Z,73.94
2017-02-09T06:30:26.990Z,73.65
2017-02-09T06:30:52.541Z,73.75
2017-02-09T06:31:18.092Z,73.84
2017-02-09T06:31:43.697Z,73.75
2017-02-09T06:32:09.242Z,73.84
2017-02-09T06:32:34.794Z,73.65
2017-02-09T06:33:00.375Z,73.55
2017-02-09T06:33:25.962Z,73.84
2017-02-09T06:33:51.531Z,73.27
2017-02-09T06:34:17.144Z,73.55
2017-02-09T06:35:25.784Z,73.46
2017-02-09T06:35:51.490Z,73.08
2017-02-09T06:36:17.063Z,73.65
2017-02-09T06:36:42.619Z,73.75
2017-02-09T06:37:08.181Z,73.27
2017-02-09T06:37:33.760Z,72.98
2017-02-09T06:37:59.324Z,73.27
2017-02-09T06:38:24.922Z,73.46
2017-02-09T06:38:50.488Z,73.36
2017-02-09T06:39:16.055Z,73.36
2017-02-09T06:39:41.722Z,73.27
2017-02-09T06:40:07.289Z,73.36
2017-02-09T06:40:32.973Z,73.36
2017-02-09T06:40:58.545Z,73.46
2017-02-09T06:41:24.143Z,73.46
2017-02-09T06:41:49.721Z,73.36
2017-02-09T06:42:15.303Z,73.36
2017-02-09T06:42:40.865Z,73.36
2017-02-09T06:43:06.423Z,73.46
2017-02-09T06:43:31.990Z,73.27
2017-02-09T06:43:57.623Z,73.08
2017-02-09T06:44:23.182Z,73.08
2017-02-09T06:44:48.753Z,73.17
2017-02-09T06:45:14.438Z,73.17
2017-02-09T06:45:40.072Z,73.17
2017-02-09T06:46:05.642Z,73.17
2017-02-09T06:46:31.191Z,73.08
2017-02-09T06:46:56.772Z,73.17
2017-02-09T06:47:22.311Z,72.98
2017-02-09T06:47:47.882Z,72.98
2017-02-09T06:48:13.434Z,73.08
2017-02-09T06:48:38.999Z,73.27
2017-02-09T06:49:04.676Z,73.17
2017-02-09T06:49:30.250Z,72.98
2017-02-09T06:49:55.809Z,72.98
2017-02-09T06:50:21.388Z,73.36
2017-02-09T06:50:46.946Z,72.69
2017-02-09T06:51:12.522Z,72.88
2017-02-09T06:51:38.103Z,72.79
2017-02-09T06:52:03.703Z,72.69
2017-02-09T06:52:29.307Z,72.79
2017-02-09T06:52:54.891Z,72.79
2017-02-09T06:53:20.452Z,72.79
2017-02-09T06:53:45.999Z,72.98
2017-02-09T06:54:11.635Z,72.98
2017-02-09T06:54:37.239Z,73.08
2017-02-09T06:55:02.810Z,72.88
2017-02-09T06:55:28.449Z,72.69
2017-02-09T06:55:54.061Z,72.79
2017-02-09T06:56:19.690Z,72.88
2017-02-09T06:56:45.263Z,72.6
2017-02-09T06:57:10.843Z,72.98
2017-02-09T06:57:36.398Z,72.69
2017-02-09T06:58:01.954Z,72.41
2017-02-09T06:58:27.507Z,72.22
2017-02-09T06:58:53.149Z,72.31
2017-02-09T06:59:18.699Z,72.5
2017-02-09T06:59:44.273Z,72.69
2017-02-09T07:00:09.841Z,72.5
2017-02-09T07:01:18.413Z,72.41
2017-02-09T07:01:44.012Z,72.5
2017-02-09T07:02:09.579Z,72.02
2017-02-09T07:02:35.139Z,72.02
2017-02-09T07:03:00.694Z,71.83
2017-02-09T07:03:26.269Z,71.83
2017-02-09T07:03:51.908Z,72.22
2017-02-09T07:04:17.504Z,72.22
2017-02-09T07:04:43.115Z,72.31
2017-02-09T07:05:08.780Z,72.22
2017-02-09T07:05:34.328Z,71.73
2017-02-09T07:05:59.893Z,71.64
2017-02-09T07:06:25.580Z,71.83
2017-02-09T07:06:51.129Z,72.02
2017-02-09T07:07:16.674Z,72.02
2017-02-09T07:07:42.242Z,72.02
2017-02-09T07:08:07.822Z,71.55
2017-02-09T07:08:33.479Z,71.55
2017-02-09T07:08:59.038Z,71.64
2017-02-09T07:09:24.717Z,71.83
2017-02-09T07:09:50.294Z,71.45
2017-02-09T07:10:15.862Z,71.64
2017-02-09T07:10:41.442Z,71.55
2017-02-09T07:11:07.095Z,71.83
2017-02-09T07:11:32.750Z,71.73
2017-02-09T07:11:58.356Z,71.55
2017-02-09T07:12:23.944Z,71.55
2017-02-09T07:12:49.508Z,71.36
2017-02-09T07:13:15.142Z,71.64
2017-02-09T07:13:40.807Z,71.36
2017-02-09T07:14:06.663Z,71.36
2017-02-09T07:14:32.245Z,71.16
2017-02-09T07:14:57.803Z,71.07
2017-02-09T07:15:23.413Z,71.26
2017-02-09T07:15:48.975Z,71.26
2017-02-09T07:16:14.533Z,71.07
2017-02-09T07:16:40.103Z,70.97
2017-02-09T07:17:05.656Z,71.07
2017-02-09T07:17:31.216Z,71.16
2017-02-09T07:17:56.795Z,71.07
2017-02-09T07:18:22.382Z,71.36
2017-02-09T07:18:47.959Z,71.36
2017-02-09T07:19:13.525Z,71.36
2017-02-09T07:19:39.086Z,71.16
2017-02-09T07:20:04.661Z,71.45
2017-02-09T07:20:30.246Z,71.36
2017-02-09T07:20:55.913Z,70.68
2017-02-09T07:21:21.562Z,70.97
2017-02-09T07:21:47.225Z,71.55
2017-02-09T07:22:12.822Z,70.87
2017-02-09T07:22:38.382Z,70.87
2017-02-09T07:23:03.955Z,70.87
2017-02-09T07:23:29.621Z,70.87
2017-02-09T07:23:55.307Z,70.87
2017-02-09T07:24:21.023Z,70.78
2017-02-09T07:24:46.584Z,70.78
2017-02-09T07:25:12.347Z,70.78
2017-02-09T07:25:37.915Z,70.78
2017-02-09T07:26:03.510Z,70.78
2017-02-09T07:26:29.098Z,70.68
2017-02-09T07:26:54.710Z,70.68
2017-02-09T07:27:20.289Z,70.87
2017-02-09T07:27:45.843Z,70.87
2017-02-09T07:28:11.412Z,70.68
2017-02-09T07:28:37.065Z,70.87
2017-02-09T07:29:02.616Z,70.87
2017-02-09T07:29:28.209Z,70.68
2017-02-09T07:29:53.791Z,71.07
2017-02-09T07:30:19.342Z,70.68
2017-02-09T07:30:44.902Z,70.78
2017-02-09T07:31:10.483Z,70.87
2017-02-09T07:31:36.100Z,70.68
2017-02-09T07:32:01.681Z,70.87
2017-02-09T07:32:27.244Z,70.87
2017-02-09T07:32:52.843Z,70.87
2017-02-09T07:33:18.401Z,71.07
2017-02-09T07:33:44.043Z,70.87
2017-02-09T07:34:09.612Z,70.97
2017-02-09T07:34:35.199Z,70.5
2017-02-09T07:35:00.770Z,70.68
2017-02-09T07:35:26.336Z,70.87
2017-02-09T07:35:51.895Z,70.97
2017-02-09T07:36:17.531Z,70.97
2017-02-09T07:36:43.224Z,70.97
2017-02-09T07:37:08.793Z,70.87
2017-02-09T07:37:34.501Z,71.07
2017-02-09T07:38:00.084Z,70.87
2017-02-09T07:38:25.668Z,70.78
2017-02-09T07:38:51.276Z,70.97
2017-02-09T07:39:16.847Z,70.78
2017-02-09T07:39:42.452Z,70.78
2017-02-09T07:40:08.200Z,70.87
2017-02-09T07:40:33.764Z,70.78
2017-02-09T07:40:59.334Z,70.59
2017-02-09T07:41:24.887Z,71.16
2017-02-09T07:41:50.570Z,71.07
2017-02-09T07:42:16.156Z,70.59
2017-02-09T07:43:14.503Z,70.5
2017-02-09T07:43:40.076Z,70.68
2017-02-09T07:44:05.631Z,70.59
2017-02-09T07:44:31.280Z,70.4
2017-02-09T07:44:56.838Z,70.59
2017-02-09T07:45:22.392Z,70.59
2017-02-09T07:45:47.960Z,70.68
2017-02-09T07:46:13.524Z,70.68
2017-02-09T07:46:39.187Z,70.59
2017-02-09T07:47:04.818Z,70.68
2017-02-09T07:47:30.483Z,70.59
2017-02-09T07:47:56.215Z,70.5
2017-02-09T07:48:21.885Z,70.68
2017-02-09T07:48:47.477Z,70.5
2017-02-09T07:49:13.054Z,70.59
2017-02-09T07:49:38.629Z,70.5
2017-02-09T07:50:04.275Z,70.59
2017-02-09T07:50:29.800Z,70.4
2017-02-09T07:50:55.392Z,70.68
2017-02-09T07:51:20.949Z,70.68
2017-02-09T07:51:46.498Z,70.4
2017-02-09T07:52:12.059Z,70.5
2017-02-09T07:52:37.622Z,70.87
2017-02-09T07:53:03.184Z,70.68
2017-02-09T07:53:28.752Z,70.87
2017-02-09T07:53:54.310Z,70.78
2017-02-09T07:54:19.879Z,70.59
2017-02-09T07:54:45.461Z,70.68
2017-02-09T07:55:11.043Z,70.68
2017-02-09T07:55:36.619Z,70.5
2017-02-09T07:56:02.155Z,70.68
2017-02-09T07:56:27.740Z,70.68
2017-02-09T07:56:53.312Z,70.87
2017-02-09T07:57:18.892Z,70.78
2017-02-09T07:57:44.469Z,70.4
2017-02-09T07:58:10.057Z,70.78
2017-02-09T07:58:35.627Z,70.68
2017-02-09T07:59:01.232Z,70.5
2017-02-09T07:59:26.788Z,70.4
2017-02-09T07:59:52.358Z,70.3
2017-02-09T08:00:18.161Z,70.68
2017-02-09T08:00:43.759Z,70.5
2017-02-09T08:01:09.377Z,70.5
2017-02-09T08:01:34.940Z,70.3
2017-02-09T08:02:00.493Z,70.5
2017-02-09T08:02:26.185Z,70.68
2017-02-09T08:02:52.658Z,70.68
2017-02-09T08:03:18.223Z,70.5
2017-02-09T08:03:43.807Z,70.5
2017-02-09T08:04:09.369Z,70.68
2017-02-09T08:04:34.943Z,70.5
2017-02-09T08:05:00.500Z,70.5
2017-02-09T08:05:26.061Z,70.3
2017-02-09T08:05:51.701Z,70.59
2017-02-09T08:06:17.289Z,70.4
2017-02-09T08:06:42.862Z,70.5
2017-02-09T08:07:08.519Z,70.4
2017-02-09T08:07:34.170Z,70.4
2017-02-09T08:07:59.739Z,70.5
2017-02-09T08:08:25.369Z,70.5
2017-02-09T08:08:50.943Z,70.4
2017-02-09T08:09:16.496Z,70.5
2017-02-09T08:09:42.219Z,70.3
2017-02-09T08:10:07.792Z,70.4
2017-02-09T08:10:33.367Z,70.59
2017-02-09T08:10:58.927Z,70.4
2017-02-09T08:11:24.587Z,70.59
2017-02-09T08:11:50.170Z,70.4
2017-02-09T08:12:15.735Z,70.68
2017-02-09T08:12:41.303Z,70.5
2017-02-09T08:13:06.946Z,70.4
2017-02-09T08:13:32.505Z,70.4
2017-02-09T08:13:58.111Z,70.4
2017-02-09T08:14:23.658Z,70.4
2017-02-09T08:14:49.220Z,70.4
2017-02-09T08:15:14.775Z,70.4
2017-02-09T08:15:40.371Z,70.21
2017-02-09T08:16:05.922Z,70.01
2017-02-09T08:16:31.486Z,70.21
2017-02-09T08:16:57.040Z,70.21
2017-02-09T08:17:22.591Z,70.21
2017-02-09T08:17:48.869Z,70.21
2017-02-09T08:18:13.804Z,70.21
2017-02-09T08:18:39.371Z,70.21
2017-02-09T08:19:04.939Z,69.92
2017-02-09T08:19:30.618Z,69.92
2017-02-09T08:19:56.190Z,69.92
2017-02-09T08:20:21.763Z,69.92
2017-02-09T08:20:47.323Z,70.11
2017-02-09T08:21:12.884Z,69.92
2017-02-09T08:21:38.534Z,69.92
2017-02-09T08:22:04.119Z,69.92
2017-02-09T08:22:29.672Z,69.82
2017-02-09T08:22:55.243Z,69.92
2017-02-09T08:23:20.798Z,70.01
2017-02-09T08:23:46.363Z,69.92
2017-02-09T08:24:11.934Z,69.92
2017-02-09T08:24:37.600Z,70.01
2017-02-09T08:25:03.147Z,70.01
2017-02-09T08:25:28.709Z,69.92
2017-02-09T08:25:54.283Z,70.11
2017-02-09T08:26:19.848Z,70.01
2017-02-09T08:26:45.440Z,69.92
2017-02-09T08:27:11.093Z,70.01
2017-02-09T08:27:36.667Z,69.92
2017-02-09T08:28:02.227Z,69.92
2017-02-09T08:28:27.900Z,70.11
2017-02-09T08:28:53.469Z,69.92
2017-02-09T08:29:19.024Z,70.11
2017-02-09T08:29:44.723Z,70.11
2017-02-09T08:30:10.318Z,70.11
2017-02-09T08:30:35.889Z,70.11
2017-02-09T08:31:01.501Z,70.21
2017-02-09T08:31:27.053Z,69.92
2017-02-09T08:31:52.587Z,70.11
2017-02-09T08:32:18.139Z,70.21
2017-02-09T08:32:43.691Z,70.21
2017-02-09T08:33:09.245Z,70.01
2017-02-09T08:33:34.908Z,70.21
2017-02-09T08:34:00.472Z,70.11
2017-02-09T08:34:26.026Z,69.92
2017-02-09T08:34:51.641Z,70.11
2017-02-09T08:35:17.210Z,70.11
2017-02-09T08:35:42.769Z,70.11
2017-02-09T08:36:08.322Z,70.11
2017-02-09T08:36:33.892Z,70.21
2017-02-09T08:36:59.465Z,70.4
2017-02-09T08:37:25.030Z,70.11
2017-02-09T08:37:50.584Z,70.11
2017-02-09T08:38:16.126Z,70.01
2017-02-09T08:38:41.692Z,70.11
2017-02-09T08:39:07.269Z,70.01
2017-02-09T08:39:32.865Z,70.01
2017-02-09T08:39:58.422Z,70.11
2017-02-09T08:40:24.251Z,70.11
2017-02-09T08:40:49.789Z,69.92
2017-02-09T08:41:15.366Z,70.01
2017-02-09T08:41:40.929Z,70.01
2017-02-09T08:42:06.497Z,70.4
2017-02-09T08:42:32.041Z,70.11
2017-02-09T08:42:57.579Z,70.21
2017-02-09T08:43:23.177Z,70.21
2017-02-09T08:43:48.734Z,70.01
2017-02-09T08:44:14.335Z,70.21
2017-02-09T08:44:39.915Z,69.82
2017-02-09T08:45:05.504Z,69.73
2017-02-09T08:45:31.208Z,70.11
2017-02-09T08:45:56.751Z,69.73
2017-02-09T08:46:22.315Z,69.44
2017-02-09T08:46:47.943Z,69.44
2017-02-09T08:47:13.508Z,69.54
2017-02-09T08:47:39.082Z,69.54
2017-02-09T08:48:04.665Z,69.54
2017-02-09T08:48:30.231Z,69.44
2017-02-09T08:48:55.789Z,69.73
2017-02-09T08:49:21.359Z,69.64
2017-02-09T08:49:46.910Z,69.64
2017-02-09T08:50:12.462Z,69.44
2017-02-09T08:50:38.024Z,69.54
2017-02-09T08:51:03.558Z,69.44
2017-02-09T08:51:29.205Z,69.64
2017-02-09T08:51:54.761Z,69.44
2017-02-09T08:52:20.335Z,69.54
2017-02-09T08:52:45.891Z,69.64
2017-02-09T08:53:11.465Z,69.54
2017-02-09T08:53:37.022Z,69.64
2017-02-09T08:54:02.795Z,69.54
2017-02-09T08:54:28.400Z,69.73
2017-02-09T08:54:53.982Z,69.73
2017-02-09T08:55:19.748Z,69.44
2017-02-09T08:55:45.320Z,69.44
2017-02-09T08:56:10.872Z,69.54
2017-02-09T08:56:36.419Z,69.73
2017-02-09T08:57:02.012Z,69.73
2017-02-09T08:57:27.584Z,69.92
2017-02-09T08:57:53.185Z,69.44
2017-02-09T08:58:18.823Z,69.44
2017-02-09T08:58:44.396Z,69.64
2017-02-09T08:59:09.967Z,69.44
2017-02-09T08:59:35.609Z,69.44
2017-02-09T09:00:01.184Z,69.73
2017-02-09T09:00:26.744Z,69.44
2017-02-09T09:00:52.295Z,69.64
2017-02-09T09:01:17.990Z,69.73
2017-02-09T09:01:43.551Z,70.11
2017-02-09T09:02:09.112Z,69.73
2017-02-09T09:02:34.787Z,69.73
2017-02-09T09:03:00.352Z,70.11
2017-02-09T09:03:25.925Z,70.21
2017-02-09T09:03:51.591Z,70.11
2017-02-09T09:04:17.171Z,70.01
2017-02-09T09:04:42.736Z,70.01
2017-02-09T09:05:08.400Z,70.01
2017-02-09T09:05:33.965Z,70.21
2017-02-09T09:05:59.531Z,70.11
2017-02-09T09:06:25.163Z,70.11
2017-02-09T09:06:50.773Z,70.4
2017-02-09T09:07:16.315Z,70.11
2017-02-09T09:07:41.869Z,70.11
2017-02-09T09:08:07.427Z,70.4
2017-02-09T09:08:32.971Z,70.21
2017-02-09T09:08:58.570Z,70.01
2017-02-09T09:09:24.224Z,70.11
2017-02-09T09:09:49.794Z,70.11
2017-02-09T09:10:15.345Z,70.11
2017-02-09T09:10:40.931Z,70.01
2017-02-09T09:11:06.495Z,70.3
2017-02-09T09:11:32.059Z,70.11
2017-02-09T09:11:57.705Z,70.11
2017-02-09T09:12:23.242Z,70.11
2017-02-09T09:12:48.804Z,70.11
2017-02-09T09:13:14.420Z,70.11
2017-02-09T09:13:40.092Z,70.11
2017-02-09T09:14:05.659Z,70.01
2017-02-09T09:14:31.238Z,70.11
2017-02-09T09:14:56.809Z,70.11
2017-02-09T09:15:22.399Z,69.92
2017-02-09T09:15:47.978Z,70.11
2017-02-09T09:16:13.529Z,70.11
2017-02-09T09:16:39.097Z,69.92
2017-02-09T09:17:04.835Z,69.92
2017-02-09T09:17:30.433Z,69.92
2017-02-09T09:17:55.978Z,70.01
2017-02-09T09:18:37.602Z,70.01
2017-02-09T09:19:03.173Z,70.11
2017-02-09T09:19:28.745Z,70.11
2017-02-09T09:19:54.309Z,70.11
2017-02-09T09:20:19.882Z,70.01
2017-02-09T09:20:45.440Z,70.11
2017-02-09T09:21:11.025Z,70.01
2017-02-09T09:21:36.598Z,70.01
2017-02-09T09:22:02.272Z,70.01
2017-02-09T09:22:27.869Z,70.11
2017-02-09T09:22:53.431Z,70.11
2017-02-09T09:23:18.999Z,70.01
2017-02-09T09:23:44.686Z,70.11
2017-02-09T09:24:10.252Z,70.11
2017-02-09T09:24:35.824Z,70.11
2017-02-09T09:25:01.388Z,70.3
2017-02-09T09:25:26.935Z,70.11
2017-02-09T09:25:52.502Z,69.92
2017-02-09T09:26:18.054Z,70.11
2017-02-09T09:26:43.610Z,70.11
2017-02-09T09:27:09.162Z,70.21
2017-02-09T09:27:34.839Z,70.11
2017-02-09T09:28:00.513Z,70.11
2017-02-09T09:28:26.071Z,70.11
2017-02-09T09:28:51.610Z,70.11
2017-02-09T09:29:17.159Z,70.21
2017-02-09T09:29:42.715Z,70.11
2017-02-09T09:30:08.284Z,70.11
2017-02-09T09:31:11.804Z,70.11
2017-02-09T09:31:37.359Z,70.11
2017-02-09T09:32:02.930Z,70.21
2017-02-09T09:32:28.487Z,70.21
2017-02-09T09:32:54.053Z,70.11
2017-02-09T09:33:19.610Z,70.3
2017-02-09T09:33:45.162Z,70.11
2017-02-09T09:34:10.716Z,70.3
2017-02-09T09:34:36.267Z,70.11
2017-02-09T09:35:01.826Z,70.3